sensor_id;sensor_type;location;lat;lon;timestamp;P1;durP1;ratioP1;P2;durP2;ratioP2
18796;SDS011;9526;52.612;13.300;2022-12-10T00:01:27;29.10;;;13.30;;
18796;SDS011;9526;52.612;13.300;2022-12-10T00:03:52;34.07;;;14.27;;
18796;SDS011;9526;52.612;13.300;2022-12-10T00:06:18;29.80;;;12.57;;
18796;SDS011;9526;52.612;13.300;2022-12-10T00:08:44;29.83;;;13.00;;
18796;SDS011;9526;52.612;13.300;2022-12-10T00:11:09;31.63;;;12.57;;
18796;SDS011;9526;52.612;13.300;2022-12-10T00:13:35;34.63;;;13.80;;
18796;SDS011;9526;52.612;13.300;2022-12-10T00:16:00;31.60;;;12.53;;
18796;SDS011;9526;52.612;13.300;2022-12-10T00:18:24;32.10;;;13.50;;
18796;SDS011;9526;52.612;13.300;2022-12-10T00:20:48;31.87;;;13.43;;
18796;SDS011;9526;52.612;13.300;2022-12-10T00:23:13;28.23;;;12.67;;
18796;SDS011;9526;52.612;13.300;2022-12-10T00:25:43;30.00;;;12.87;;
18796;SDS011;9526;52.612;13.300;2022-12-10T00:28:07;29.77;;;13.20;;
18796;SDS011;9526;52.612;13.300;2022-12-10T00:30:30;30.60;;;13.57;;
18796;SDS011;9526;52.612;13.300;2022-12-10T00:32:56;29.67;;;12.30;;
18796;SDS011;9526;52.612;13.300;2022-12-10T00:35:19;32.70;;;13.30;;
18796;SDS011;9526;52.612;13.300;2022-12-10T00:37:43;31.93;;;13.00;;
18796;SDS011;9526;52.612;13.300;2022-12-10T00:40:09;33.20;;;14.20;;
18796;SDS011;9526;52.612;13.300;2022-12-10T00:42:34;32.63;;;13.90;;
18796;SDS011;9526;52.612;13.300;2022-12-10T00:44:57;33.53;;;13.73;;
18796;SDS011;9526;52.612;13.300;2022-12-10T00:47:21;33.67;;;14.67;;
18796;SDS011;9526;52.612;13.300;2022-12-10T00:49:44;30.17;;;14.33;;
18796;SDS011;9526;52.612;13.300;2022-12-10T00:52:08;32.23;;;14.27;;
18796;SDS011;9526;52.612;13.300;2022-12-10T00:54:32;32.60;;;13.37;;
18796;SDS011;9526;52.612;13.300;2022-12-10T00:56:56;28.30;;;13.00;;
18796;SDS011;9526;52.612;13.300;2022-12-10T00:59:20;28.57;;;13.17;;
18796;SDS011;9526;52.612;13.300;2022-12-10T01:01:44;29.80;;;13.63;;
18796;SDS011;9526;52.612;13.300;2022-12-10T01:04:08;29.67;;;12.60;;
18796;SDS011;9526;52.612;13.300;2022-12-10T01:06:39;27.60;;;13.13;;
18796;SDS011;9526;52.612;13.300;2022-12-10T01:09:06;24.60;;;12.80;;
18796;SDS011;9526;52.612;13.300;2022-12-10T01:11:32;29.80;;;14.23;;
18796;SDS011;9526;52.612;13.300;2022-12-10T01:14:01;30.47;;;13.07;;
18796;SDS011;9526;52.612;13.300;2022-12-10T01:16:24;32.73;;;13.80;;
18796;SDS011;9526;52.612;13.300;2022-12-10T01:18:49;34.10;;;14.33;;
18796;SDS011;9526;52.612;13.300;2022-12-10T01:21:16;31.50;;;13.70;;
18796;SDS011;9526;52.612;13.300;2022-12-10T01:23:41;27.63;;;13.03;;
18796;SDS011;9526;52.612;13.300;2022-12-10T01:26:08;33.63;;;13.83;;
18796;SDS011;9526;52.612;13.300;2022-12-10T01:28:36;29.83;;;12.63;;
18796;SDS011;9526;52.612;13.300;2022-12-10T01:31:03;33.47;;;13.10;;
18796;SDS011;9526;52.612;13.300;2022-12-10T01:33:29;30.00;;;13.27;;
18796;SDS011;9526;52.612;13.300;2022-12-10T01:35:53;31.07;;;13.20;;
18796;SDS011;9526;52.612;13.300;2022-12-10T01:38:17;30.17;;;14.30;;
18796;SDS011;9526;52.612;13.300;2022-12-10T01:40:40;32.27;;;13.70;;
18796;SDS011;9526;52.612;13.300;2022-12-10T01:43:05;30.17;;;13.27;;
18796;SDS011;9526;52.612;13.300;2022-12-10T01:45:32;30.13;;;13.23;;
18796;SDS011;9526;52.612;13.300;2022-12-10T01:47:57;33.03;;;13.93;;
18796;SDS011;9526;52.612;13.300;2022-12-10T01:50:28;30.43;;;14.03;;
18796;SDS011;9526;52.612;13.300;2022-12-10T01:52:51;31.07;;;13.07;;
18796;SDS011;9526;52.612;13.300;2022-12-10T01:58:02;31.57;;;13.97;;
18796;SDS011;9526;52.612;13.300;2022-12-10T02:00:25;31.50;;;14.03;;
18796;SDS011;9526;52.612;13.300;2022-12-10T02:02:50;32.13;;;14.07;;
18796;SDS011;9526;52.612;13.300;2022-12-10T02:05:27;32.80;;;14.43;;
18796;SDS011;9526;52.612;13.300;2022-12-10T02:08:03;32.97;;;14.33;;
18796;SDS011;9526;52.612;13.300;2022-12-10T02:10:40;31.87;;;14.67;;
18796;SDS011;9526;52.612;13.300;2022-12-10T02:13:14;34.80;;;14.77;;
18796;SDS011;9526;52.612;13.300;2022-12-10T02:15:44;33.67;;;14.53;;
18796;SDS011;9526;52.612;13.300;2022-12-10T02:18:16;39.27;;;14.70;;
18796;SDS011;9526;52.612;13.300;2022-12-10T02:20:45;35.47;;;15.17;;
18796;SDS011;9526;52.612;13.300;2022-12-10T02:23:13;38.30;;;15.33;;
18796;SDS011;9526;52.612;13.300;2022-12-10T02:25:43;36.73;;;14.53;;
18796;SDS011;9526;52.612;13.300;2022-12-10T02:28:13;36.20;;;14.97;;
18796;SDS011;9526;52.612;13.300;2022-12-10T02:30:48;38.43;;;15.23;;
18796;SDS011;9526;52.612;13.300;2022-12-10T02:33:13;34.37;;;14.73;;
18796;SDS011;9526;52.612;13.300;2022-12-10T02:35:39;33.93;;;14.60;;
18796;SDS011;9526;52.612;13.300;2022-12-10T02:38:07;38.37;;;15.33;;
18796;SDS011;9526;52.612;13.300;2022-12-10T02:40:37;39.13;;;15.43;;
18796;SDS011;9526;52.612;13.300;2022-12-10T02:43:06;46.03;;;16.33;;
18796;SDS011;9526;52.612;13.300;2022-12-10T02:45:32;44.97;;;16.20;;
18796;SDS011;9526;52.612;13.300;2022-12-10T02:48:01;36.33;;;15.40;;
18796;SDS011;9526;52.612;13.300;2022-12-10T02:50:32;38.33;;;15.87;;
18796;SDS011;9526;52.612;13.300;2022-12-10T02:52:57;41.80;;;16.13;;
18796;SDS011;9526;52.612;13.300;2022-12-10T02:55:21;37.30;;;15.53;;
18796;SDS011;9526;52.612;13.300;2022-12-10T02:57:52;39.27;;;15.53;;
18796;SDS011;9526;52.612;13.300;2022-12-10T03:00:28;45.07;;;16.90;;
18796;SDS011;9526;52.612;13.300;2022-12-10T03:03:11;39.97;;;15.77;;
18796;SDS011;9526;52.612;13.300;2022-12-10T03:05:50;46.03;;;15.77;;
18796;SDS011;9526;52.612;13.300;2022-12-10T03:08:22;39.30;;;15.97;;
18796;SDS011;9526;52.612;13.300;2022-12-10T03:10:53;40.63;;;15.63;;
18796;SDS011;9526;52.612;13.300;2022-12-10T03:13:23;43.50;;;15.23;;
18796;SDS011;9526;52.612;13.300;2022-12-10T03:15:52;39.83;;;16.30;;
18796;SDS011;9526;52.612;13.300;2022-12-10T03:18:19;42.37;;;15.77;;
18796;SDS011;9526;52.612;13.300;2022-12-10T03:20:46;41.07;;;16.30;;
18796;SDS011;9526;52.612;13.300;2022-12-10T03:23:15;42.40;;;16.53;;
18796;SDS011;9526;52.612;13.300;2022-12-10T03:25:39;37.37;;;15.03;;
18796;SDS011;9526;52.612;13.300;2022-12-10T03:28:04;41.20;;;16.47;;
18796;SDS011;9526;52.612;13.300;2022-12-10T03:30:30;43.17;;;16.40;;
18796;SDS011;9526;52.612;13.300;2022-12-10T03:32:55;40.77;;;16.63;;
18796;SDS011;9526;52.612;13.300;2022-12-10T03:35:20;40.23;;;16.40;;
18796;SDS011;9526;52.612;13.300;2022-12-10T03:37:46;40.90;;;16.43;;
18796;SDS011;9526;52.612;13.300;2022-12-10T03:40:11;39.93;;;16.33;;
18796;SDS011;9526;52.612;13.300;2022-12-10T03:42:35;38.80;;;15.80;;
18796;SDS011;9526;52.612;13.300;2022-12-10T03:44:59;44.33;;;16.13;;
18796;SDS011;9526;52.612;13.300;2022-12-10T03:47:23;37.83;;;15.60;;
18796;SDS011;9526;52.612;13.300;2022-12-10T03:49:47;37.77;;;14.37;;
18796;SDS011;9526;52.612;13.300;2022-12-10T03:52:12;40.30;;;15.90;;
18796;SDS011;9526;52.612;13.300;2022-12-10T03:54:35;40.93;;;15.47;;
18796;SDS011;9526;52.612;13.300;2022-12-10T03:56:59;39.83;;;15.93;;
18796;SDS011;9526;52.612;13.300;2022-12-10T03:59:23;40.00;;;16.30;;
18796;SDS011;9526;52.612;13.300;2022-12-10T04:01:46;41.33;;;16.80;;
18796;SDS011;9526;52.612;13.300;2022-12-10T04:04:10;42.17;;;16.73;;
18796;SDS011;9526;52.612;13.300;2022-12-10T04:06:36;36.30;;;15.27;;
18796;SDS011;9526;52.612;13.300;2022-12-10T04:09:02;37.70;;;15.67;;
18796;SDS011;9526;52.612;13.300;2022-12-10T04:11:26;36.33;;;15.37;;
18796;SDS011;9526;52.612;13.300;2022-12-10T04:13:50;41.50;;;16.23;;
18796;SDS011;9526;52.612;13.300;2022-12-10T04:16:32;35.37;;;16.13;;
18796;SDS011;9526;52.612;13.300;2022-12-10T04:18:57;36.87;;;15.37;;
18796;SDS011;9526;52.612;13.300;2022-12-10T04:21:25;40.60;;;15.83;;
18796;SDS011;9526;52.612;13.300;2022-12-10T04:24:09;36.90;;;16.40;;
18796;SDS011;9526;52.612;13.300;2022-12-10T04:26:51;37.60;;;15.30;;
18796;SDS011;9526;52.612;13.300;2022-12-10T04:29:15;38.47;;;15.27;;
18796;SDS011;9526;52.612;13.300;2022-12-10T04:31:39;37.43;;;15.90;;
18796;SDS011;9526;52.612;13.300;2022-12-10T04:34:02;35.83;;;16.47;;
18796;SDS011;9526;52.612;13.300;2022-12-10T04:36:26;40.30;;;16.53;;
18796;SDS011;9526;52.612;13.300;2022-12-10T04:38:49;34.90;;;15.40;;
18796;SDS011;9526;52.612;13.300;2022-12-10T04:41:14;38.90;;;16.60;;
18796;SDS011;9526;52.612;13.300;2022-12-10T04:43:38;37.20;;;16.10;;
18796;SDS011;9526;52.612;13.300;2022-12-10T04:46:01;35.10;;;15.87;;
18796;SDS011;9526;52.612;13.300;2022-12-10T04:48:25;31.13;;;15.13;;
18796;SDS011;9526;52.612;13.300;2022-12-10T04:50:49;35.60;;;15.57;;
18796;SDS011;9526;52.612;13.300;2022-12-10T04:53:12;35.70;;;15.47;;
18796;SDS011;9526;52.612;13.300;2022-12-10T04:55:36;33.30;;;15.27;;
18796;SDS011;9526;52.612;13.300;2022-12-10T04:58:01;35.17;;;15.07;;
18796;SDS011;9526;52.612;13.300;2022-12-10T05:00:25;34.43;;;15.63;;
18796;SDS011;9526;52.612;13.300;2022-12-10T05:02:48;37.27;;;16.30;;
18796;SDS011;9526;52.612;13.300;2022-12-10T05:05:12;34.03;;;15.47;;
18796;SDS011;9526;52.612;13.300;2022-12-10T05:07:35;33.47;;;14.87;;
18796;SDS011;9526;52.612;13.300;2022-12-10T05:09:59;31.60;;;14.87;;
18796;SDS011;9526;52.612;13.300;2022-12-10T05:12:23;32.10;;;14.87;;
18796;SDS011;9526;52.612;13.300;2022-12-10T05:14:48;32.03;;;14.43;;
18796;SDS011;9526;52.612;13.300;2022-12-10T05:17:11;32.27;;;14.63;;
18796;SDS011;9526;52.612;13.300;2022-12-10T05:19:35;31.07;;;14.53;;
18796;SDS011;9526;52.612;13.300;2022-12-10T05:21:58;27.77;;;13.60;;
18796;SDS011;9526;52.612;13.300;2022-12-10T05:24:39;30.43;;;13.97;;
18796;SDS011;9526;52.612;13.300;2022-12-10T05:27:03;30.53;;;14.30;;
18796;SDS011;9526;52.612;13.300;2022-12-10T05:29:27;28.80;;;14.53;;
18796;SDS011;9526;52.612;13.300;2022-12-10T05:31:52;30.33;;;13.63;;
18796;SDS011;9526;52.612;13.300;2022-12-10T05:34:15;30.57;;;14.17;;
18796;SDS011;9526;52.612;13.300;2022-12-10T05:36:39;29.83;;;13.60;;
18796;SDS011;9526;52.612;13.300;2022-12-10T05:39:03;32.43;;;14.60;;
18796;SDS011;9526;52.612;13.300;2022-12-10T05:41:27;28.90;;;13.70;;
18796;SDS011;9526;52.612;13.300;2022-12-10T05:43:53;26.17;;;13.33;;
18796;SDS011;9526;52.612;13.300;2022-12-10T05:46:21;28.93;;;13.70;;
18796;SDS011;9526;52.612;13.300;2022-12-10T05:48:49;28.10;;;14.30;;
18796;SDS011;9526;52.612;13.300;2022-12-10T05:51:14;29.93;;;14.67;;
18796;SDS011;9526;52.612;13.300;2022-12-10T05:53:40;27.33;;;13.60;;
18796;SDS011;9526;52.612;13.300;2022-12-10T05:56:05;26.07;;;14.10;;
18796;SDS011;9526;52.612;13.300;2022-12-10T05:58:31;27.40;;;13.70;;
18796;SDS011;9526;52.612;13.300;2022-12-10T06:00:56;27.43;;;13.97;;
18796;SDS011;9526;52.612;13.300;2022-12-10T06:03:20;29.63;;;14.17;;
18796;SDS011;9526;52.612;13.300;2022-12-10T06:05:44;28.37;;;14.27;;
18796;SDS011;9526;52.612;13.300;2022-12-10T06:08:08;24.53;;;13.20;;
18796;SDS011;9526;52.612;13.300;2022-12-10T06:10:33;29.03;;;14.27;;
18796;SDS011;9526;52.612;13.300;2022-12-10T06:12:57;29.57;;;13.87;;
18796;SDS011;9526;52.612;13.300;2022-12-10T06:15:21;30.47;;;14.77;;
18796;SDS011;9526;52.612;13.300;2022-12-10T06:17:44;29.30;;;14.03;;
18796;SDS011;9526;52.612;13.300;2022-12-10T06:20:08;28.27;;;14.27;;
18796;SDS011;9526;52.612;13.300;2022-12-10T06:22:34;29.83;;;14.27;;
18796;SDS011;9526;52.612;13.300;2022-12-10T06:24:58;30.03;;;14.47;;
18796;SDS011;9526;52.612;13.300;2022-12-10T06:27:22;31.00;;;14.27;;
18796;SDS011;9526;52.612;13.300;2022-12-10T06:29:45;26.57;;;13.50;;
18796;SDS011;9526;52.612;13.300;2022-12-10T06:32:09;29.50;;;14.23;;
18796;SDS011;9526;52.612;13.300;2022-12-10T06:34:32;29.70;;;13.73;;
18796;SDS011;9526;52.612;13.300;2022-12-10T06:37:03;27.57;;;13.97;;
18796;SDS011;9526;52.612;13.300;2022-12-10T06:39:28;29.87;;;14.63;;
18796;SDS011;9526;52.612;13.300;2022-12-10T06:41:51;27.00;;;14.13;;
18796;SDS011;9526;52.612;13.300;2022-12-10T06:44:19;28.83;;;14.43;;
18796;SDS011;9526;52.612;13.300;2022-12-10T06:46:43;30.03;;;14.30;;
18796;SDS011;9526;52.612;13.300;2022-12-10T06:49:06;30.47;;;14.63;;
18796;SDS011;9526;52.612;13.300;2022-12-10T06:51:30;29.73;;;13.80;;
18796;SDS011;9526;52.612;13.300;2022-12-10T06:53:54;27.87;;;14.30;;
18796;SDS011;9526;52.612;13.300;2022-12-10T06:56:19;28.63;;;13.70;;
18796;SDS011;9526;52.612;13.300;2022-12-10T06:58:43;27.80;;;14.13;;
18796;SDS011;9526;52.612;13.300;2022-12-10T07:01:07;32.33;;;14.77;;
18796;SDS011;9526;52.612;13.300;2022-12-10T07:03:34;31.40;;;15.43;;
18796;SDS011;9526;52.612;13.300;2022-12-10T07:05:59;27.17;;;14.47;;
18796;SDS011;9526;52.612;13.300;2022-12-10T07:08:23;30.20;;;13.97;;
18796;SDS011;9526;52.612;13.300;2022-12-10T07:10:47;28.60;;;14.07;;
18796;SDS011;9526;52.612;13.300;2022-12-10T07:13:12;28.13;;;13.93;;
18796;SDS011;9526;52.612;13.300;2022-12-10T07:15:36;29.73;;;13.77;;
18796;SDS011;9526;52.612;13.300;2022-12-10T07:17:59;27.70;;;12.97;;
18796;SDS011;9526;52.612;13.300;2022-12-10T07:20:23;27.07;;;13.13;;
18796;SDS011;9526;52.612;13.300;2022-12-10T07:22:46;27.53;;;14.13;;
18796;SDS011;9526;52.612;13.300;2022-12-10T07:25:10;25.60;;;13.33;;
18796;SDS011;9526;52.612;13.300;2022-12-10T07:27:33;24.63;;;13.10;;
18796;SDS011;9526;52.612;13.300;2022-12-10T07:29:58;25.57;;;13.57;;
18796;SDS011;9526;52.612;13.300;2022-12-10T07:32:22;23.63;;;12.30;;
18796;SDS011;9526;52.612;13.300;2022-12-10T07:34:46;22.17;;;12.77;;
18796;SDS011;9526;52.612;13.300;2022-12-10T07:37:09;23.10;;;12.43;;
18796;SDS011;9526;52.612;13.300;2022-12-10T07:39:33;24.50;;;12.30;;
18796;SDS011;9526;52.612;13.300;2022-12-10T07:41:56;24.70;;;13.13;;
18796;SDS011;9526;52.612;13.300;2022-12-10T07:44:23;24.87;;;13.00;;
18796;SDS011;9526;52.612;13.300;2022-12-10T07:46:51;27.10;;;13.90;;
18796;SDS011;9526;52.612;13.300;2022-12-10T07:49:16;26.87;;;13.07;;
18796;SDS011;9526;52.612;13.300;2022-12-10T07:51:43;23.03;;;12.57;;
18796;SDS011;9526;52.612;13.300;2022-12-10T07:54:07;24.20;;;13.13;;
18796;SDS011;9526;52.612;13.300;2022-12-10T07:56:31;23.53;;;12.57;;
18796;SDS011;9526;52.612;13.300;2022-12-10T07:58:54;25.30;;;13.17;;
18796;SDS011;9526;52.612;13.300;2022-12-10T08:01:19;23.20;;;12.50;;
18796;SDS011;9526;52.612;13.300;2022-12-10T08:03:46;23.67;;;11.97;;
18796;SDS011;9526;52.612;13.300;2022-12-10T08:06:10;24.77;;;13.03;;
18796;SDS011;9526;52.612;13.300;2022-12-10T08:08:36;23.63;;;12.63;;
18796;SDS011;9526;52.612;13.300;2022-12-10T08:11:01;20.73;;;11.23;;
18796;SDS011;9526;52.612;13.300;2022-12-10T08:13:26;23.27;;;12.60;;
18796;SDS011;9526;52.612;13.300;2022-12-10T08:15:50;24.03;;;12.57;;
18796;SDS011;9526;52.612;13.300;2022-12-10T08:18:14;20.63;;;11.77;;
18796;SDS011;9526;52.612;13.300;2022-12-10T08:20:39;21.97;;;11.73;;
18796;SDS011;9526;52.612;13.300;2022-12-10T08:23:02;23.80;;;12.50;;
18796;SDS011;9526;52.612;13.300;2022-12-10T08:25:26;24.00;;;13.03;;
18796;SDS011;9526;52.612;13.300;2022-12-10T08:27:49;23.67;;;12.63;;
18796;SDS011;9526;52.612;13.300;2022-12-10T08:30:13;24.23;;;11.57;;
18796;SDS011;9526;52.612;13.300;2022-12-10T08:32:36;22.87;;;12.80;;
18796;SDS011;9526;52.612;13.300;2022-12-10T08:35:00;20.33;;;12.30;;
18796;SDS011;9526;52.612;13.300;2022-12-10T08:37:25;23.23;;;12.53;;
18796;SDS011;9526;52.612;13.300;2022-12-10T08:39:49;20.90;;;12.30;;
18796;SDS011;9526;52.612;13.300;2022-12-10T08:42:12;23.33;;;12.87;;
18796;SDS011;9526;52.612;13.300;2022-12-10T08:44:36;24.63;;;12.37;;
18796;SDS011;9526;52.612;13.300;2022-12-10T08:47:00;21.93;;;12.10;;
18796;SDS011;9526;52.612;13.300;2022-12-10T08:49:23;23.37;;;12.03;;
18796;SDS011;9526;52.612;13.300;2022-12-10T08:51:47;23.70;;;13.10;;
18796;SDS011;9526;52.612;13.300;2022-12-10T08:54:12;24.17;;;12.47;;
18796;SDS011;9526;52.612;13.300;2022-12-10T08:56:35;23.60;;;13.60;;
18796;SDS011;9526;52.612;13.300;2022-12-10T08:59:00;22.87;;;11.83;;
18796;SDS011;9526;52.612;13.300;2022-12-10T09:01:24;23.77;;;12.70;;
18796;SDS011;9526;52.612;13.300;2022-12-10T09:03:48;25.13;;;14.33;;
18796;SDS011;9526;52.612;13.300;2022-12-10T09:06:13;25.30;;;14.00;;
18796;SDS011;9526;52.612;13.300;2022-12-10T09:08:39;25.03;;;13.10;;
18796;SDS011;9526;52.612;13.300;2022-12-10T09:11:07;24.67;;;14.37;;
18796;SDS011;9526;52.612;13.300;2022-12-10T09:13:35;26.80;;;13.87;;
18796;SDS011;9526;52.612;13.300;2022-12-10T09:15:59;26.97;;;14.37;;
18796;SDS011;9526;52.612;13.300;2022-12-10T09:18:22;22.43;;;13.00;;
18796;SDS011;9526;52.612;13.300;2022-12-10T09:20:46;27.03;;;13.93;;
18796;SDS011;9526;52.612;13.300;2022-12-10T09:23:09;23.27;;;13.60;;
18796;SDS011;9526;52.612;13.300;2022-12-10T09:25:33;25.13;;;14.00;;
18796;SDS011;9526;52.612;13.300;2022-12-10T09:27:58;24.53;;;13.80;;
18796;SDS011;9526;52.612;13.300;2022-12-10T09:30:22;25.13;;;14.07;;
18796;SDS011;9526;52.612;13.300;2022-12-10T09:32:45;28.00;;;14.63;;
18796;SDS011;9526;52.612;13.300;2022-12-10T09:35:09;25.50;;;14.47;;
18796;SDS011;9526;52.612;13.300;2022-12-10T09:37:33;24.43;;;13.97;;
18796;SDS011;9526;52.612;13.300;2022-12-10T09:39:56;23.37;;;13.67;;
18796;SDS011;9526;52.612;13.300;2022-12-10T09:42:23;26.87;;;13.70;;
18796;SDS011;9526;52.612;13.300;2022-12-10T09:45:02;25.50;;;14.20;;
18796;SDS011;9526;52.612;13.300;2022-12-10T09:47:40;27.90;;;13.37;;
18796;SDS011;9526;52.612;13.300;2022-12-10T09:50:16;26.03;;;14.57;;
18796;SDS011;9526;52.612;13.300;2022-12-10T09:52:47;25.30;;;14.17;;
18796;SDS011;9526;52.612;13.300;2022-12-10T09:55:13;24.50;;;13.40;;
18796;SDS011;9526;52.612;13.300;2022-12-10T09:57:41;23.37;;;12.53;;
18796;SDS011;9526;52.612;13.300;2022-12-10T10:00:15;27.37;;;15.30;;
18796;SDS011;9526;52.612;13.300;2022-12-10T10:02:45;22.80;;;12.90;;
18796;SDS011;9526;52.612;13.300;2022-12-10T10:05:10;23.30;;;12.93;;
18796;SDS011;9526;52.612;13.300;2022-12-10T10:07:44;25.60;;;13.93;;
18796;SDS011;9526;52.612;13.300;2022-12-10T10:10:18;26.30;;;14.13;;
18796;SDS011;9526;52.612;13.300;2022-12-10T10:12:46;24.93;;;13.60;;
18796;SDS011;9526;52.612;13.300;2022-12-10T10:15:14;25.63;;;13.83;;
18796;SDS011;9526;52.612;13.300;2022-12-10T10:17:39;26.60;;;14.67;;
18796;SDS011;9526;52.612;13.300;2022-12-10T10:20:07;24.40;;;14.50;;
18796;SDS011;9526;52.612;13.300;2022-12-10T10:22:31;25.80;;;14.57;;
18796;SDS011;9526;52.612;13.300;2022-12-10T10:24:55;31.07;;;16.37;;
18796;SDS011;9526;52.612;13.300;2022-12-10T10:27:24;30.07;;;15.70;;
18796;SDS011;9526;52.612;13.300;2022-12-10T10:29:51;25.30;;;14.37;;
18796;SDS011;9526;52.612;13.300;2022-12-10T10:32:21;25.60;;;14.47;;
18796;SDS011;9526;52.612;13.300;2022-12-10T10:34:51;26.90;;;15.40;;
18796;SDS011;9526;52.612;13.300;2022-12-10T10:37:19;26.33;;;14.53;;
18796;SDS011;9526;52.612;13.300;2022-12-10T10:39:46;28.90;;;15.53;;
18796;SDS011;9526;52.612;13.300;2022-12-10T10:42:14;29.73;;;16.13;;
18796;SDS011;9526;52.612;13.300;2022-12-10T10:44:51;27.93;;;15.63;;
18796;SDS011;9526;52.612;13.300;2022-12-10T10:47:26;28.87;;;16.07;;
18796;SDS011;9526;52.612;13.300;2022-12-10T10:49:55;25.93;;;15.17;;
18796;SDS011;9526;52.612;13.300;2022-12-10T10:52:19;29.50;;;15.43;;
18796;SDS011;9526;52.612;13.300;2022-12-10T10:54:44;27.67;;;15.30;;
18796;SDS011;9526;52.612;13.300;2022-12-10T10:57:11;29.53;;;15.43;;
18796;SDS011;9526;52.612;13.300;2022-12-10T10:59:40;28.60;;;15.63;;
18796;SDS011;9526;52.612;13.300;2022-12-10T11:02:08;28.63;;;15.53;;
18796;SDS011;9526;52.612;13.300;2022-12-10T11:04:46;27.27;;;15.60;;
18796;SDS011;9526;52.612;13.300;2022-12-10T11:07:14;27.60;;;15.30;;
18796;SDS011;9526;52.612;13.300;2022-12-10T11:09:55;28.00;;;15.67;;
18796;SDS011;9526;52.612;13.300;2022-12-10T11:12:29;31.53;;;17.07;;
18796;SDS011;9526;52.612;13.300;2022-12-10T11:14:58;32.27;;;15.90;;
18796;SDS011;9526;52.612;13.300;2022-12-10T11:17:22;28.10;;;15.67;;
18796;SDS011;9526;52.612;13.300;2022-12-10T11:19:55;28.73;;;15.97;;
18796;SDS011;9526;52.612;13.300;2022-12-10T11:22:23;30.47;;;15.70;;
18796;SDS011;9526;52.612;13.300;2022-12-10T11:24:48;34.53;;;17.03;;
18796;SDS011;9526;52.612;13.300;2022-12-10T11:27:13;29.17;;;16.30;;
18796;SDS011;9526;52.612;13.300;2022-12-10T11:29:49;32.57;;;16.87;;
18796;SDS011;9526;52.612;13.300;2022-12-10T11:32:27;30.57;;;16.90;;
18796;SDS011;9526;52.612;13.300;2022-12-10T11:35:12;29.27;;;15.23;;
18796;SDS011;9526;52.612;13.300;2022-12-10T11:37:43;27.83;;;16.03;;
18796;SDS011;9526;52.612;13.300;2022-12-10T11:40:24;27.93;;;15.43;;
18796;SDS011;9526;52.612;13.300;2022-12-10T11:42:58;32.67;;;16.87;;
18796;SDS011;9526;52.612;13.300;2022-12-10T11:45:52;30.17;;;16.57;;
18796;SDS011;9526;52.612;13.300;2022-12-10T11:48:33;31.60;;;16.07;;
18796;SDS011;9526;52.612;13.300;2022-12-10T11:51:18;34.00;;;17.23;;
18796;SDS011;9526;52.612;13.300;2022-12-10T11:53:55;32.70;;;16.60;;
18796;SDS011;9526;52.612;13.300;2022-12-10T11:56:31;31.17;;;17.03;;
18796;SDS011;9526;52.612;13.300;2022-12-10T11:59:04;30.57;;;16.43;;
18796;SDS011;9526;52.612;13.300;2022-12-10T12:01:46;31.07;;;16.80;;
18796;SDS011;9526;52.612;13.300;2022-12-10T12:04:27;30.57;;;16.37;;
18796;SDS011;9526;52.612;13.300;2022-12-10T12:07:12;31.27;;;15.80;;
18796;SDS011;9526;52.612;13.300;2022-12-10T12:09:57;32.00;;;16.83;;
18796;SDS011;9526;52.612;13.300;2022-12-10T12:12:53;30.10;;;15.93;;
18796;SDS011;9526;52.612;13.300;2022-12-10T12:15:22;29.03;;;15.37;;
18796;SDS011;9526;52.612;13.300;2022-12-10T12:17:53;31.23;;;16.50;;
18796;SDS011;9526;52.612;13.300;2022-12-10T12:20:22;31.53;;;16.90;;
18796;SDS011;9526;52.612;13.300;2022-12-10T12:22:54;32.23;;;16.87;;
18796;SDS011;9526;52.612;13.300;2022-12-10T12:25:22;33.17;;;15.87;;
18796;SDS011;9526;52.612;13.300;2022-12-10T12:27:50;28.03;;;15.33;;
18796;SDS011;9526;52.612;13.300;2022-12-10T12:30:19;27.70;;;15.30;;
18796;SDS011;9526;52.612;13.300;2022-12-10T12:32:49;29.57;;;16.50;;
18796;SDS011;9526;52.612;13.300;2022-12-10T12:35:19;31.23;;;16.50;;
18796;SDS011;9526;52.612;13.300;2022-12-10T12:37:54;26.87;;;15.07;;
18796;SDS011;9526;52.612;13.300;2022-12-10T12:40:25;32.07;;;16.40;;
18796;SDS011;9526;52.612;13.300;2022-12-10T12:42:53;28.67;;;14.93;;
18796;SDS011;9526;52.612;13.300;2022-12-10T12:45:24;31.13;;;16.23;;
18796;SDS011;9526;52.612;13.300;2022-12-10T12:48:04;31.93;;;15.33;;
18796;SDS011;9526;52.612;13.300;2022-12-10T12:50:42;33.03;;;16.13;;
18796;SDS011;9526;52.612;13.300;2022-12-10T12:53:11;30.43;;;15.20;;
18796;SDS011;9526;52.612;13.300;2022-12-10T12:55:38;31.57;;;16.30;;
18796;SDS011;9526;52.612;13.300;2022-12-10T12:58:13;30.43;;;16.07;;
18796;SDS011;9526;52.612;13.300;2022-12-10T13:00:46;32.77;;;15.57;;
18796;SDS011;9526;52.612;13.300;2022-12-10T13:03:31;36.07;;;15.73;;
18796;SDS011;9526;52.612;13.300;2022-12-10T13:06:11;35.00;;;16.03;;
18796;SDS011;9526;52.612;13.300;2022-12-10T13:08:43;34.17;;;16.13;;
18796;SDS011;9526;52.612;13.300;2022-12-10T13:11:19;31.83;;;16.37;;
18796;SDS011;9526;52.612;13.300;2022-12-10T13:14:03;31.97;;;16.03;;
18796;SDS011;9526;52.612;13.300;2022-12-10T13:16:58;29.37;;;15.37;;
18796;SDS011;9526;52.612;13.300;2022-12-10T13:19:45;30.30;;;14.47;;
18796;SDS011;9526;52.612;13.300;2022-12-10T13:22:09;32.30;;;16.13;;
18796;SDS011;9526;52.612;13.300;2022-12-10T13:24:46;33.63;;;16.90;;
18796;SDS011;9526;52.612;13.300;2022-12-10T13:27:33;34.80;;;18.67;;
18796;SDS011;9526;52.612;13.300;2022-12-10T13:29:57;37.70;;;19.97;;
18796;SDS011;9526;52.612;13.300;2022-12-10T13:32:23;38.97;;;19.80;;
18796;SDS011;9526;52.612;13.300;2022-12-10T13:37:56;36.00;;;16.63;;
18796;SDS011;9526;52.612;13.300;2022-12-10T13:40:37;32.70;;;16.40;;
18796;SDS011;9526;52.612;13.300;2022-12-10T13:43:24;33.07;;;16.37;;
18796;SDS011;9526;52.612;13.300;2022-12-10T13:46:22;35.20;;;16.17;;
18796;SDS011;9526;52.612;13.300;2022-12-10T13:48:49;31.73;;;15.53;;
18796;SDS011;9526;52.612;13.300;2022-12-10T13:54:17;31.37;;;14.80;;
18796;SDS011;9526;52.612;13.300;2022-12-10T13:57:12;31.83;;;15.53;;
18796;SDS011;9526;52.612;13.300;2022-12-10T13:59:49;36.03;;;16.83;;
18796;SDS011;9526;52.612;13.300;2022-12-10T14:02:46;35.43;;;15.83;;
18796;SDS011;9526;52.612;13.300;2022-12-10T14:05:49;31.83;;;16.23;;
18796;SDS011;9526;52.612;13.300;2022-12-10T14:08:35;30.00;;;15.27;;
18796;SDS011;9526;52.612;13.300;2022-12-10T14:11:02;31.80;;;15.40;;
18796;SDS011;9526;52.612;13.300;2022-12-10T14:13:34;32.60;;;16.30;;
18796;SDS011;9526;52.612;13.300;2022-12-10T14:16:04;37.07;;;17.03;;
18796;SDS011;9526;52.612;13.300;2022-12-10T14:18:33;35.67;;;16.97;;
18796;SDS011;9526;52.612;13.300;2022-12-10T14:20:57;30.67;;;16.10;;
18796;SDS011;9526;52.612;13.300;2022-12-10T14:23:27;32.73;;;16.97;;
18796;SDS011;9526;52.612;13.300;2022-12-10T14:25:55;35.10;;;16.90;;
18796;SDS011;9526;52.612;13.300;2022-12-10T14:28:19;38.93;;;17.30;;
18796;SDS011;9526;52.612;13.300;2022-12-10T14:30:44;39.93;;;17.60;;
18796;SDS011;9526;52.612;13.300;2022-12-10T14:33:10;35.30;;;16.57;;
18796;SDS011;9526;52.612;13.300;2022-12-10T14:35:39;33.97;;;15.80;;